createdAt,value
2023-02-16T00:00:48.123Z,33.90
2023-02-16T00:03:22.082Z,36.50
2023-02-16T00:05:50.569Z,39.23
2023-02-16T00:08:17.847Z,36.83
2023-02-16T00:11:06.292Z,34.33
2023-02-16T00:13:44.853Z,44.33
2023-02-16T00:16:24.668Z,36.13
2023-02-16T00:18:52.807Z,37.40
2023-02-16T00:21:20.545Z,31.83
2023-02-16T00:23:48.708Z,37.77
2023-02-16T00:26:22.832Z,33.47
2023-02-16T00:28:58.645Z,33.20
2023-02-16T00:31:32.356Z,35.03
2023-02-16T00:34:14.178Z,35.47
2023-02-16T00:36:43.697Z,37.93
2023-02-16T00:39:10.624Z,34.63
2023-02-16T00:41:55.077Z,35.90
2023-02-16T00:44:41.702Z,33.63
2023-02-16T00:47:21.980Z,37.00
2023-02-16T00:49:54.122Z,33.60
2023-02-16T00:52:37.122Z,41.70
2023-02-16T00:55:13.618Z,35.90
2023-02-16T00:58:18.538Z,37.70
2023-02-16T01:00:55.632Z,33.43
2023-02-16T01:03:29.066Z,40.10
2023-02-16T01:06:15.362Z,31.70
2023-02-16T01:09:01.607Z,37.40
2023-02-16T01:11:29.980Z,36.03
2023-02-16T01:13:58.467Z,36.40
2023-02-16T01:16:37.397Z,38.73
2023-02-16T01:19:07.240Z,47.83
2023-02-16T01:21:34.228Z,37.17
2023-02-16T01:24:03.283Z,43.00
2023-02-16T01:26:32.626Z,39.80
2023-02-16T01:29:02.994Z,33.83
2023-02-16T01:31:30.010Z,41.37
2023-02-16T01:33:56.975Z,47.00
2023-02-16T01:36:30.044Z,39.87
2023-02-16T01:38:56.996Z,41.97
2023-02-16T01:42:04.488Z,36.53
2023-02-16T01:44:46.134Z,39.87
2023-02-16T01:47:36.930Z,34.10
2023-02-16T01:50:22.232Z,38.40
2023-02-16T01:53:02.923Z,44.70
2023-02-16T01:55:42.440Z,49.30
2023-02-16T01:58:31.849Z,40.17
2023-02-16T02:00:58.899Z,38.50
2023-02-16T02:03:54.664Z,40.73
2023-02-16T02:06:33.617Z,38.50
2023-02-16T02:09:11.721Z,36.60
2023-02-16T02:12:13.121Z,37.07
2023-02-16T02:14:40.735Z,40.30
2023-02-16T02:17:16.527Z,40.07
2023-02-16T02:20:05.458Z,39.53
2023-02-16T02:23:33.624Z,42.07
2023-02-16T02:26:40.721Z,37.20
2023-02-16T02:29:27.618Z,42.07
2023-02-16T02:32:17.978Z,42.63
2023-02-16T02:34:56.987Z,37.27
2023-02-16T02:37:57.335Z,51.43
2023-02-16T02:40:34.290Z,42.30
2023-02-16T02:43:25.190Z,41.37
2023-02-16T02:46:01.844Z,35.83
2023-02-16T02:48:33.709Z,39.53
2023-02-16T02:51:28.550Z,41.40
2023-02-16T02:54:20.666Z,45.10
2023-02-16T02:57:12.732Z,45.77
2023-02-16T03:00:01.950Z,42.30
2023-02-16T03:02:31.540Z,38.73
2023-02-16T03:05:00.025Z,53.10
2023-02-16T03:07:51.450Z,41.17
2023-02-16T03:10:44.915Z,46.93
2023-02-16T03:13:35.166Z,39.23
2023-02-16T03:16:14.346Z,45.30
2023-02-16T03:19:05.194Z,44.07
2023-02-16T03:21:52.444Z,39.10
2023-02-16T03:24:48.674Z,42.20
2023-02-16T03:27:40.979Z,41.10
2023-02-16T03:30:12.200Z,44.37
2023-02-16T03:32:42.200Z,41.33
2023-02-16T03:35:12.797Z,47.47
2023-02-16T03:37:46.976Z,38.77
2023-02-16T03:40:30.913Z,45.97
2023-02-16T03:43:04.624Z,39.47
2023-02-16T03:45:35.179Z,45.77
2023-02-16T03:48:02.544Z,44.00
2023-02-16T03:50:29.964Z,37.50
2023-02-16T03:53:09.126Z,44.27
2023-02-16T03:55:38.428Z,48.83
2023-02-16T03:58:10.583Z,43.17
2023-02-16T04:00:38.279Z,41.40
2023-02-16T04:03:05.992Z,44.30
2023-02-16T04:05:33.669Z,40.60
2023-02-16T04:08:00.763Z,46.63
2023-02-16T04:10:27.879Z,42.30
2023-02-16T04:12:54.807Z,43.07
2023-02-16T04:15:26.272Z,51.37
2023-02-16T04:17:54.062Z,52.90
2023-02-16T04:20:25.643Z,43.73
2023-02-16T04:22:56.154Z,42.23
2023-02-16T04:25:23.427Z,46.33
2023-02-16T04:27:55.710Z,44.00
2023-02-16T04:30:30.604Z,49.03
2023-02-16T04:32:58.738Z,47.13
2023-02-16T04:35:25.700Z,40.47
2023-02-16T04:37:57.229Z,50.87
2023-02-16T04:40:24.149Z,42.87
2023-02-16T04:42:51.102Z,45.40
2023-02-16T04:45:18.034Z,44.97
2023-02-16T04:47:47.900Z,44.47
2023-02-16T04:50:14.823Z,39.57
2023-02-16T04:52:42.253Z,42.77
2023-02-16T04:55:12.273Z,43.63
2023-02-16T04:57:40.264Z,42.63
2023-02-16T05:00:13.159Z,42.53
2023-02-16T05:02:47.037Z,45.17
2023-02-16T05:05:16.112Z,43.80
2023-02-16T05:07:45.666Z,46.13
2023-02-16T05:10:12.633Z,50.77
2023-02-16T05:12:58.026Z,46.47
2023-02-16T05:15:25.001Z,47.50
2023-02-16T05:17:56.625Z,49.10
2023-02-16T05:20:45.791Z,55.33
2023-02-16T05:23:12.729Z,45.77
2023-02-16T05:25:42.092Z,46.33
2023-02-16T05:28:09.146Z,46.77
2023-02-16T05:30:40.859Z,60.10
2023-02-16T05:33:10.205Z,56.43
2023-02-16T05:35:39.643Z,42.77
2023-02-16T05:38:11.139Z,51.47
2023-02-16T05:40:38.034Z,48.20
2023-02-16T05:43:07.365Z,42.90
2023-02-16T05:45:34.256Z,49.17
2023-02-16T05:48:01.109Z,57.50
2023-02-16T05:50:32.564Z,52.70
2023-02-16T05:53:02.470Z,50.63
2023-02-16T05:55:29.370Z,51.53
2023-02-16T05:57:56.339Z,48.67
2023-02-16T06:00:25.776Z,53.20
2023-02-16T06:02:57.284Z,54.57
2023-02-16T06:05:26.711Z,50.83
2023-02-16T06:07:53.530Z,55.00
2023-02-16T06:10:20.487Z,55.57
2023-02-16T06:12:50.369Z,51.83
2023-02-16T06:15:18.015Z,64.93
2023-02-16T06:17:44.941Z,59.63
2023-02-16T06:20:12.167Z,62.90
2023-02-16T06:22:38.988Z,60.53
2023-02-16T06:25:08.455Z,58.60
2023-02-16T06:27:35.386Z,58.43
2023-02-16T06:30:02.886Z,58.77
2023-02-16T06:32:29.951Z,58.67
2023-02-16T06:35:01.960Z,54.47
2023-02-16T06:37:28.873Z,56.10
2023-02-16T06:39:55.773Z,63.40
2023-02-16T06:42:22.672Z,62.03
2023-02-16T06:44:52.576Z,56.57
2023-02-16T06:47:19.471Z,60.43
2023-02-16T06:49:46.299Z,61.80
2023-02-16T06:52:13.237Z,55.20
2023-02-16T06:54:40.099Z,60.60
2023-02-16T06:57:09.146Z,60.17
2023-02-16T06:59:36.008Z,53.90
2023-02-16T07:02:06.096Z,57.30
2023-02-16T07:04:35.999Z,54.87
2023-02-16T07:07:03.798Z,66.83
2023-02-16T07:09:30.731Z,63.37
2023-02-16T07:11:58.395Z,77.60
2023-02-16T07:14:25.257Z,67.23
2023-02-16T07:16:54.637Z,55.30
2023-02-16T07:19:21.486Z,56.63
2023-02-16T07:21:50.911Z,58.73
2023-02-16T07:24:17.870Z,62.00
2023-02-16T07:26:44.700Z,55.63
2023-02-16T07:29:16.081Z,65.03
2023-02-16T07:31:48.676Z,61.80
2023-02-16T07:34:19.650Z,60.13
2023-02-16T07:36:52.225Z,56.53
2023-02-16T07:39:19.564Z,60.93
2023-02-16T07:41:46.496Z,61.20
2023-02-16T07:44:13.398Z,61.57
2023-02-16T07:46:40.411Z,73.13
2023-02-16T07:49:07.304Z,54.60
2023-02-16T07:51:35.064Z,59.20
2023-02-16T07:54:01.957Z,55.87
2023-02-16T07:56:31.610Z,64.30
2023-02-16T07:59:05.456Z,55.83
2023-02-16T08:01:35.277Z,58.90
2023-02-16T08:04:02.146Z,57.43
2023-02-16T08:06:29.040Z,56.47
2023-02-16T08:08:58.672Z,59.20
2023-02-16T08:11:28.359Z,54.93
2023-02-16T08:13:55.421Z,59.23
2023-02-16T08:16:27.293Z,60.00
2023-02-16T08:18:58.787Z,80.60
2023-02-16T08:21:29.933Z,60.30
2023-02-16T08:24:06.242Z,58.30
2023-02-16T08:26:44.996Z,61.73
2023-02-16T08:29:17.973Z,61.30
2023-02-16T08:31:50.517Z,53.23
2023-02-16T08:34:20.395Z,62.20
2023-02-16T08:36:56.452Z,59.77
2023-02-16T08:39:29.882Z,62.30
2023-02-16T08:41:59.244Z,59.00
2023-02-16T08:44:28.966Z,59.50
2023-02-16T08:47:01.504Z,62.83
2023-02-16T08:49:28.497Z,63.67
2023-02-16T08:51:58.628Z,58.30
2023-02-16T08:54:30.664Z,54.77
2023-02-16T08:56:59.991Z,78.50
2023-02-16T08:59:28.750Z,59.47
2023-02-16T09:02:00.215Z,59.63
2023-02-16T09:04:31.014Z,66.57
2023-02-16T09:06:59.682Z,63.30
2023-02-16T09:09:27.981Z,54.83
2023-02-16T09:11:59.660Z,61.70
2023-02-16T09:14:31.344Z,57.83
2023-02-16T09:17:00.751Z,60.93
2023-02-16T09:19:30.139Z,62.60
2023-02-16T09:21:57.055Z,53.43
2023-02-16T09:24:23.947Z,57.70
2023-02-16T09:26:53.439Z,63.03
2023-02-16T09:29:24.830Z,55.73
2023-02-16T09:31:52.345Z,61.23
2023-02-16T09:34:22.677Z,57.10
2023-02-16T09:36:50.824Z,57.20
2023-02-16T09:39:20.759Z,55.80
2023-02-16T09:42:05.792Z,69.13
2023-02-16T09:44:45.412Z,58.63
2023-02-16T09:47:33.068Z,58.30
2023-02-16T09:50:13.274Z,50.50
2023-02-16T09:52:58.018Z,65.87
2023-02-16T09:55:32.452Z,55.13
2023-02-16T09:58:25.444Z,60.30
2023-02-16T10:01:25.050Z,62.50
2023-02-16T10:04:13.002Z,60.80
2023-02-16T10:06:54.387Z,62.40
2023-02-16T10:09:22.091Z,71.17
2023-02-16T10:12:04.198Z,55.03
2023-02-16T10:14:50.093Z,49.87
2023-02-16T10:17:32.659Z,57.27
2023-02-16T10:20:06.356Z,56.13
2023-02-16T10:22:47.356Z,61.83
2023-02-16T10:25:37.651Z,53.77
2023-02-16T10:28:28.879Z,53.80
2023-02-16T10:31:06.228Z,60.50
2023-02-16T10:33:53.394Z,57.90
2023-02-16T10:36:55.357Z,55.20
2023-02-16T10:39:29.710Z,61.83
2023-02-16T10:42:27.156Z,45.77
2023-02-16T10:45:24.133Z,53.83
2023-02-16T10:47:56.762Z,53.20
2023-02-16T10:50:43.060Z,52.83
2023-02-16T10:53:21.104Z,56.47
2023-02-16T10:55:50.084Z,51.23
2023-02-16T10:58:29.210Z,45.87
2023-02-16T11:01:08.518Z,53.63
2023-02-16T11:03:46.679Z,51.40
2023-02-16T11:06:18.885Z,52.10
2023-02-16T11:08:59.222Z,49.97
2023-02-16T11:11:28.270Z,57.63
2023-02-16T11:14:23.939Z,55.83
2023-02-16T11:17:13.515Z,48.07
2023-02-16T11:19:50.481Z,62.23
2023-02-16T11:22:31.313Z,50.30
2023-02-16T11:25:22.669Z,51.07
2023-02-16T11:27:58.624Z,51.47
2023-02-16T11:30:41.511Z,57.63
2023-02-16T11:33:27.689Z,56.63
2023-02-16T11:35:55.938Z,54.53
2023-02-16T11:38:33.993Z,49.93
2023-02-16T11:41:05.074Z,47.17
2023-02-16T11:43:44.000Z,54.43
2023-02-16T11:46:20.678Z,54.53
2023-02-16T11:48:55.377Z,56.10
2023-02-16T11:51:36.482Z,50.07
2023-02-16T11:54:06.297Z,57.33
2023-02-16T11:56:37.899Z,60.17
2023-02-16T11:59:24.884Z,54.30
2023-02-16T12:02:31.730Z,51.70
2023-02-16T12:05:17.118Z,53.37
2023-02-16T12:08:10.724Z,53.47
2023-02-16T12:11:18.696Z,49.07
2023-02-16T12:14:36.386Z,54.90
2023-02-16T12:17:33.607Z,51.93
2023-02-16T12:20:17.309Z,52.00
2023-02-16T12:22:50.048Z,51.87
2023-02-16T12:25:27.134Z,52.47
2023-02-16T12:28:37.318Z,51.73
2023-02-16T12:31:31.495Z,60.47
2023-02-16T12:34:30.277Z,56.07
2023-02-16T12:37:18.027Z,63.23
2023-02-16T12:40:02.794Z,61.33
2023-02-16T12:42:55.283Z,52.50
2023-02-16T12:45:32.448Z,53.40
2023-02-16T12:48:11.494Z,47.00
2023-02-16T12:50:42.303Z,56.37
2023-02-16T12:53:27.499Z,49.97
2023-02-16T12:55:59.182Z,55.47
2023-02-16T12:58:32.406Z,54.20
2023-02-16T13:01:21.748Z,49.17
2023-02-16T13:04:14.491Z,52.50
2023-02-16T13:06:55.851Z,54.20
2023-02-16T13:09:53.379Z,51.87
2023-02-16T13:12:51.768Z,48.00
2023-02-16T13:16:29.152Z,54.23
2023-02-16T13:19:01.790Z,55.13
2023-02-16T13:21:51.226Z,55.33
2023-02-16T13:24:36.765Z,54.93
2023-02-16T13:27:25.052Z,60.50
2023-02-16T13:30:16.948Z,57.77
2023-02-16T13:32:45.061Z,50.90
2023-02-16T13:35:22.719Z,53.33
2023-02-16T13:38:23.298Z,53.83
2023-02-16T13:41:11.700Z,53.17
2023-02-16T13:44:12.323Z,51.00
2023-02-16T13:46:50.202Z,58.93
2023-02-16T13:49:29.148Z,56.17
2023-02-16T13:51:56.339Z,49.73
2023-02-16T13:54:40.205Z,56.53
2023-02-16T13:57:18.374Z,55.80
2023-02-16T13:59:58.476Z,70.70
2023-02-16T14:02:54.813Z,61.70
2023-02-16T14:05:35.212Z,58.70
2023-02-16T14:08:13.534Z,61.57
2023-02-16T14:10:55.467Z,64.33
2023-02-16T14:13:33.671Z,61.47
2023-02-16T14:16:17.351Z,53.70
2023-02-16T14:18:54.621Z,61.50
2023-02-16T14:21:48.250Z,55.00
2023-02-16T14:24:34.002Z,57.23
2023-02-16T14:27:09.632Z,68.30
2023-02-16T14:29:44.459Z,60.60
2023-02-16T14:32:39.290Z,60.50
2023-02-16T14:35:17.036Z,60.80
2023-02-16T14:37:55.166Z,64.70
2023-02-16T14:40:40.827Z,60.07
2023-02-16T14:43:24.992Z,74.17
2023-02-16T14:46:27.963Z,60.97
2023-02-16T14:49:43.192Z,63.43
2023-02-16T14:52:40.495Z,60.53
2023-02-16T14:55:18.243Z,60.47
2023-02-16T14:57:57.108Z,60.30
2023-02-16T15:00:29.098Z,55.53
2023-02-16T15:03:29.858Z,51.57
2023-02-16T15:06:06.657Z,61.17
2023-02-16T15:08:48.561Z,55.40
2023-02-16T15:12:10.452Z,55.93
2023-02-16T15:14:59.130Z,57.40
2023-02-16T15:17:39.930Z,55.20
2023-02-16T15:20:28.507Z,59.47
2023-02-16T15:23:01.399Z,59.23
2023-02-16T15:25:34.935Z,63.83
2023-02-16T15:28:12.723Z,58.03
2023-02-16T15:30:44.556Z,60.73
2023-02-16T15:33:27.296Z,59.40
2023-02-16T15:36:15.026Z,66.70
2023-02-16T15:38:54.814Z,56.63
2023-02-16T15:41:38.295Z,53.27
2023-02-16T15:44:17.774Z,56.90
2023-02-16T15:46:48.368Z,61.10
2023-02-16T15:49:28.341Z,65.07
2023-02-16T15:51:57.482Z,58.43
2023-02-16T15:54:35.536Z,63.30
2023-02-16T15:57:21.362Z,59.97
2023-02-16T15:59:52.963Z,58.27
2023-02-16T16:02:27.138Z,56.53
2023-02-16T16:05:05.864Z,60.90
2023-02-16T16:07:42.940Z,64.87
2023-02-16T16:10:27.072Z,56.13
2023-02-16T16:13:03.663Z,63.20
2023-02-16T16:15:36.058Z,58.80
2023-02-16T16:18:06.757Z,55.00
2023-02-16T16:20:38.517Z,53.20
2023-02-16T16:23:17.526Z,66.87
2023-02-16T16:25:49.010Z,58.40
2023-02-16T16:28:27.990Z,54.67
2023-02-16T16:31:17.521Z,62.57
2023-02-16T16:34:07.447Z,65.43
2023-02-16T16:36:46.849Z,55.23
2023-02-16T16:39:16.743Z,53.40
2023-02-16T16:42:16.416Z,61.30
2023-02-16T16:44:56.472Z,65.63
2023-02-16T16:47:34.435Z,65.07
2023-02-16T16:50:10.563Z,68.80
2023-02-16T16:52:52.485Z,65.43
2023-02-16T16:55:19.279Z,66.40
2023-02-16T16:57:53.734Z,70.43
2023-02-16T17:00:22.241Z,66.80
2023-02-16T17:02:50.033Z,66.90
2023-02-16T17:05:17.312Z,58.77
2023-02-16T17:07:48.890Z,70.37
2023-02-16T17:10:20.057Z,66.03
2023-02-16T17:12:52.015Z,68.47
2023-02-16T17:15:56.493Z,73.00
2023-02-16T17:18:29.123Z,62.03
2023-02-16T17:20:58.791Z,72.13
2023-02-16T17:23:28.065Z,78.13
2023-02-16T17:25:54.968Z,78.27
2023-02-16T17:28:22.123Z,77.93
2023-02-16T17:30:51.589Z,78.10
2023-02-16T17:33:18.507Z,77.87
2023-02-16T17:35:47.914Z,79.40
2023-02-16T17:38:22.863Z,94.10
2023-02-16T17:40:54.396Z,82.40
2023-02-16T17:43:25.726Z,83.43
2023-02-16T17:45:59.472Z,74.53
2023-02-16T17:48:30.383Z,80.80
2023-02-16T17:51:00.474Z,84.33
2023-02-16T17:53:32.856Z,81.17
2023-02-16T17:56:01.801Z,83.77
2023-02-16T17:58:28.715Z,80.27
2023-02-16T18:00:57.733Z,80.23
2023-02-16T18:03:27.682Z,88.73
2023-02-16T18:05:55.438Z,84.57
2023-02-16T18:08:22.874Z,86.87
2023-02-16T18:10:53.807Z,86.67
2023-02-16T18:13:20.843Z,77.27
2023-02-16T18:15:50.145Z,79.47
2023-02-16T18:18:20.151Z,77.07
2023-02-16T18:20:47.997Z,83.97
2023-02-16T18:23:15.369Z,77.63
2023-02-16T18:25:44.062Z,74.10
2023-02-16T18:28:20.935Z,75.70
2023-02-16T18:30:49.246Z,69.30
2023-02-16T18:33:23.214Z,59.03
2023-02-16T18:36:00.335Z,69.90
2023-02-16T18:38:27.755Z,63.90
2023-02-16T18:40:55.446Z,69.30
2023-02-16T18:43:23.176Z,62.73
2023-02-16T18:45:52.728Z,64.27
2023-02-16T18:48:21.761Z,61.70
2023-02-16T18:50:50.916Z,60.43
2023-02-16T18:53:22.978Z,67.37
2023-02-16T18:55:52.386Z,69.80
2023-02-16T18:58:19.744Z,78.63
2023-02-16T19:00:49.696Z,75.13
2023-02-16T19:03:16.772Z,73.10
2023-02-16T19:05:43.835Z,86.80
2023-02-16T19:08:10.854Z,82.17
2023-02-16T19:10:40.304Z,77.03
2023-02-16T19:13:10.348Z,87.53
2023-02-16T19:15:41.611Z,81.77
2023-02-16T19:18:08.534Z,75.33
2023-02-16T19:20:39.001Z,78.80
2023-02-16T19:23:10.409Z,71.67
2023-02-16T19:25:37.323Z,86.63
2023-02-16T19:28:04.509Z,80.07
2023-02-16T19:30:31.546Z,71.87
2023-02-16T19:33:00.866Z,85.60
2023-02-16T19:35:27.791Z,77.20
2023-02-16T19:37:57.113Z,87.60
2023-02-16T19:40:28.522Z,96.07
2023-02-16T19:42:57.776Z,82.00
2023-02-16T19:45:24.957Z,80.40
2023-02-16T19:47:51.885Z,85.33
2023-02-16T19:50:21.448Z,86.10
2023-02-16T19:52:48.355Z,93.27
2023-02-16T19:55:15.260Z,81.30
2023-02-16T19:57:44.353Z,85.37
2023-02-16T20:00:14.076Z,93.10
2023-02-16T20:02:41.005Z,97.13
2023-02-16T20:05:13.439Z,88.23
2023-02-16T20:07:40.504Z,89.27
2023-02-16T20:10:11.166Z,87.93
2023-02-16T20:12:38.136Z,85.63
2023-02-16T20:15:08.886Z,92.47
2023-02-16T20:17:35.857Z,88.37
2023-02-16T20:20:09.223Z,92.83
2023-02-16T20:22:38.225Z,84.57
2023-02-16T20:25:07.740Z,93.83
2023-02-16T20:27:35.001Z,102.07
2023-02-16T20:30:07.791Z,93.20
2023-02-16T20:32:36.897Z,94.53
2023-02-16T20:35:09.707Z,85.87
2023-02-16T20:37:41.219Z,87.80
2023-02-16T20:40:11.135Z,88.80
2023-02-16T20:42:38.051Z,89.77
2023-02-16T20:45:05.522Z,107.30
2023-02-16T20:47:32.461Z,92.17
2023-02-16T20:50:02.382Z,101.30
2023-02-16T20:52:34.470Z,101.83
2023-02-16T20:55:01.491Z,100.17
2023-02-16T20:57:28.404Z,99.03
2023-02-16T20:59:57.941Z,99.70
2023-02-16T21:02:24.912Z,106.43
2023-02-16T21:04:54.457Z,100.70
2023-02-16T21:07:21.374Z,96.73
2023-02-16T21:09:48.304Z,102.17
2023-02-16T21:12:20.038Z,90.13
2023-02-16T21:14:51.418Z,105.83
2023-02-16T21:17:18.540Z,104.93
2023-02-16T21:19:45.697Z,104.00
2023-02-16T21:22:17.308Z,98.87
2023-02-16T21:24:46.753Z,99.67
2023-02-16T21:27:16.659Z,99.10
2023-02-16T21:29:43.792Z,92.90
2023-02-16T21:32:13.904Z,100.30
2023-02-16T21:34:40.947Z,89.80
2023-02-16T21:37:14.912Z,94.53
2023-02-16T21:40:02.660Z,105.53
2023-02-16T21:42:32.088Z,96.23
2023-02-16T21:45:13.905Z,88.43
2023-02-16T21:48:05.885Z,91.90
2023-02-16T21:50:39.882Z,99.07
2023-02-16T21:53:10.036Z,86.13
2023-02-16T21:55:58.841Z,86.47
2023-02-16T21:58:30.161Z,92.63
2023-02-16T22:01:00.609Z,77.90
2023-02-16T22:03:28.262Z,79.40
2023-02-16T22:05:55.255Z,73.73
2023-02-16T22:08:22.120Z,75.20
2023-02-16T22:10:56.105Z,74.87
2023-02-16T22:13:23.023Z,72.37
2023-02-16T22:15:52.082Z,74.70
2023-02-16T22:18:21.036Z,65.60
2023-02-16T22:20:52.605Z,68.20
2023-02-16T22:23:22.119Z,64.53
2023-02-16T22:25:51.463Z,62.60
2023-02-16T22:28:20.420Z,61.53
2023-02-16T22:30:50.346Z,60.40
2023-02-16T22:33:17.261Z,65.50
2023-02-16T22:35:48.815Z,67.37
2023-02-16T22:38:16.926Z,57.53
2023-02-16T22:40:43.902Z,59.67
2023-02-16T22:43:13.225Z,57.43
2023-02-16T22:45:40.170Z,63.00
2023-02-16T22:48:10.066Z,60.23
2023-02-16T22:50:41.529Z,59.70
2023-02-16T22:53:11.613Z,60.63
2023-02-16T22:55:41.749Z,61.57
2023-02-16T22:58:11.006Z,64.57
2023-02-16T23:00:40.470Z,67.47
2023-02-16T23:03:09.372Z,62.93
2023-02-16T23:05:36.297Z,59.13
2023-02-16T23:08:05.512Z,61.37
2023-02-16T23:10:37.785Z,60.90
2023-02-16T23:13:10.578Z,67.97
2023-02-16T23:15:37.894Z,70.47
2023-02-16T23:18:04.880Z,75.50
2023-02-16T23:20:34.235Z,66.93
2023-02-16T23:23:01.137Z,68.10
2023-02-16T23:25:33.672Z,69.73
2023-02-16T23:28:06.363Z,57.50
2023-02-16T23:30:33.372Z,63.90
2023-02-16T23:33:02.418Z,63.40
2023-02-16T23:35:34.172Z,63.10
2023-02-16T23:38:02.779Z,58.70
2023-02-16T23:40:32.351Z,59.53
2023-02-16T23:43:01.799Z,59.80
2023-02-16T23:45:31.248Z,57.07
2023-02-16T23:47:58.201Z,58.30
2023-02-16T23:50:31.241Z,51.70
2023-02-16T23:52:58.112Z,53.57
2023-02-16T23:55:25.059Z,56.67
2023-02-16T23:57:54.169Z,54.10
